Time;durP1;ratioP1;P1;durP2;ratioP2;P2;SDS_P1;SDS_P2;PMS_P1;PMS_P2;Temp;Humidity;BMP_temperature;BMP_pressure;BME280_temperature;BME280_humidity;BME280_pressure;Samples;Min_cycle;Max_cycle;Signal;HPM_P1;HPM_P2
2022/06/25 00:01:28;;;;;;;;;;;;;;;;;;4960565;28;20393;-86
2022/06/25 00:03:54;;;;;;;;;;;;;;;;;;4961313;28;20021;-83
2022/06/25 00:06:20;;;;;;;;;;;;;;;;;;4975395;28;19949;-86
2022/06/25 00:08:46;;;;;;;;;;;;;;;;;;4971884;28;20047;-86
2022/06/25 00:13:57;;;;;;;;;;;;;;;;;;4982431;28;19999;-85
2022/06/25 00:16:24;;;;;;;;;;;;;;;;;;4965116;28;19974;-85
2022/06/25 00:18:50;;;;;;;;;;;;;;;;;;4965218;28;20048;-85
2022/06/25 00:21:16;;;;;;;;;;;;;;;;;;4967848;28;20008;-85
2022/06/25 00:23:42;;;;;;;;;;;;;;;;;;4970079;28;20286;-85
2022/06/25 00:26:08;;;;;;;;;;;;;;;;;;4963920;28;19917;-85
2022/06/25 00:28:37;;;;;;;;;;;;;;;;;;4987114;28;19914;-85
2022/06/25 00:31:03;;;;;;;;;;;;;;;;;;4968468;28;19910;-85
2022/06/25 00:33:29;;;;;;;;;;;;;;;;;;4987257;28;19960;-83
2022/06/25 00:35:55;;;;;;;;;;;;;;;;;;4978151;28;19920;-84
2022/06/25 00:38:21;;;;;;;;;;;;;;;;;;4968498;28;19910;-85
2022/06/25 00:40:47;;;;;;;;;;;;;;;;;;4967048;28;19920;-85
2022/06/25 00:43:13;;;;;;;;;;;;;;;;;;4977141;28;19910;-85
2022/06/25 00:45:39;;;;;;;;;;;;;;;;;;4967754;28;19925;-85
2022/06/25 00:48:04;;;;;;;;;;;;;;;;;;4966168;28;19921;-85
2022/06/25 00:50:30;;;;;;;;;;;;;;;;;;4962743;28;19968;-85
2022/06/25 00:52:57;;;;;;;;;;;;;;;;;;4982691;28;19940;-86
2022/06/25 00:55:25;;;;;;;;;;;;;;;;;;4970022;28;19910;-84
2022/06/25 00:57:51;;;;;;;;;;;;;;;;;;4985267;28;19956;-85
2022/06/25 01:00:17;;;;;;;;;;;;;;;;;;4984367;28;19910;-86
2022/06/25 01:02:44;;;;;;;;;;;;;;;;;;4963710;28;20017;-85
2022/06/25 01:05:09;;;;;;;;;;;;;;;;;;4964933;28;20250;-86
2022/06/25 01:07:35;;;;;;;;;;;;;;;;;;4966020;28;19937;-87
2022/06/25 01:10:07;;;;;;;;;;;;;;;;;;4982459;28;19972;-86
2022/06/25 01:12:33;;;;;;;;;;;;;;;;;;4979069;28;20639;-86
2022/06/25 01:14:59;;;;;;;;;;;;;;;;;;4957778;28;19914;-86
2022/06/25 01:17:25;;;;;;;;;;;;;;;;;;4963946;28;20004;-85
2022/06/25 01:19:51;;;;;;;;;;;;;;;;;;4967210;28;19936;-84
2022/06/25 01:22:17;;;;;;;;;;;;;;;;;;4964606;28;19918;-86
2022/06/25 01:24:43;;;;;;;;;;;;;;;;;;4967336;28;19922;-85
2022/06/25 01:27:09;;;;;;;;;;;;;;;;;;4983890;28;19913;-84
2022/06/25 01:29:35;;;;;;;;;;;;;;;;;;4967432;28;19968;-86
2022/06/25 01:32:01;;;;;;;;;;;;;;;;;;4964923;28;19909;-85
2022/06/25 01:34:27;;;;;;;;;;;;;;;;;;4961777;28;19916;-85
2022/06/25 01:36:53;;;;;;;;;;;;;;;;;;4966819;28;19918;-85
2022/06/25 01:39:18;;;;;;;;;;;;;;;;;;4981695;28;19936;-85
2022/06/25 01:41:44;;;;;;;;;;;;;;;;;;4966618;28;20024;-86
2022/06/25 01:44:10;;;;;;;;;;;;;;;;;;4982333;28;19921;-87
2022/06/25 01:46:36;;;;;;;;;;;;;;;;;;4964120;28;19918;-84
2022/06/25 01:49:02;;;;;;;;;;;;;;;;;;4949169;28;19972;-85
2022/06/25 01:51:28;;;;;;;;;;;;;;;;;;4966081;28;19917;-84
2022/06/25 01:53:54;;;;;;;;;;;;;;;;;;4968687;28;19921;-86
2022/06/25 01:56:20;;;;;;;;;;;;;;;;;;4972428;28;19914;-85
2022/06/25 01:58:46;;;;;;;;;;;;;;;;;;4958370;28;20381;-85
2022/06/25 02:01:12;;;;;;;;;;;;;;;;;;4972066;28;19913;-86
2022/06/25 02:03:38;;;;;;;;;;;;;;;;;;4968819;28;19976;-85
2022/06/25 02:06:04;;;;;;;;;;;;;;;;;;4969449;28;20335;-85
2022/06/25 02:08:30;;;;;;;;;;;;;;;;;;4959150;28;19953;-85
2022/06/25 02:10:56;;;;;;;;;;;;;;;;;;4959127;28;20345;-86
2022/06/25 02:13:22;;;;;;;;;;;;;;;;;;4971620;28;19965;-86
2022/06/25 02:15:48;;;;;;;;;;;;;;;;;;4973108;28;20012;-83
2022/06/25 02:18:14;;;;;;;;;;;;;;;;;;4948607;28;20024;-85
2022/06/25 02:20:40;;;;;;;;;;;;;;;;;;4953535;28;19976;-85
2022/06/25 02:23:05;;;;;;;;;;;;;;;;;;4954450;28;19910;-85
2022/06/25 02:25:31;;;;;;;;;;;;;;;;;;4954561;28;19910;-85
2022/06/25 02:28:05;;;;;;;;;;;;;;;;;;4970619;28;19968;-85
2022/06/25 02:30:31;;;;;;;;;;;;;;;;;;4970725;28;19953;-85
2022/06/25 02:32:57;;;;;;;;;;;;;;;;;;4953091;28;19925;-85
2022/06/25 02:35:23;;;;;;;;;;;;;;;;;;4952904;28;19922;-86
2022/06/25 02:37:49;;;;;;;;;;;;;;;;;;4969449;28;20827;-86
2022/06/25 02:40:15;;;;;;;;;;;;;;;;;;4970423;28;20306;-85
2022/06/25 02:42:41;;;;;;;;;;;;;;;;;;4954841;28;19909;-85
2022/06/25 02:45:07;;;;;;;;;;;;;;;;;;4960764;28;19921;-86
2022/06/25 02:47:33;;;;;;;;;;;;;;;;;;4994438;28;20428;-85
2022/06/25 02:49:58;;;;;;;;;;;;;;;;;;4986821;28;19920;-86
2022/06/25 02:52:24;;;;;;;;;;;;;;;;;;4983554;28;20004;-85
2022/06/25 02:54:50;;;;;;;;;;;;;;;;;;4989439;28;19914;-85
2022/06/25 03:00:01;;;;;;;;;;;;;;;;;;4987891;28;19960;-86
2022/06/25 03:02:27;;;;;;;;;;;;;;;;;;4965289;28;20294;-86
2022/06/25 03:04:53;;;;;;;;;;;;;;;;;;4968621;28;20016;-85
2022/06/25 03:07:19;;;;;;;;;;;;;;;;;;4976824;28;19966;-86
2022/06/25 03:09:45;;;;;;;;;;;;;;;;;;4988402;28;19968;-85
2022/06/25 03:12:12;;;;;;;;;;;;;;;;;;4984753;28;20321;-86
2022/06/25 03:14:38;;;;;;;;;;;;;;;;;;4969892;28;20654;-84
2022/06/25 03:17:03;;;;;;;;;;;;;;;;;;4967634;28;20579;-85
2022/06/25 03:19:29;;;;;;;;;;;;;;;;;;4971687;28;19909;-86
2022/06/25 03:21:55;;;;;;;;;;;;;;;;;;4969856;28;19916;-86
2022/06/25 03:24:21;;;;;;;;;;;;;;;;;;4981622;28;19922;-85
2022/06/25 03:26:47;;;;;;;;;;;;;;;;;;4993744;28;19917;-86
2022/06/25 03:29:13;;;;;;;;;;;;;;;;;;4987834;28;19921;-86
2022/06/25 03:31:39;;;;;;;;;;;;;;;;;;4968732;28;21612;-83
2022/06/25 03:34:05;;;;;;;;;;;;;;;;;;4963974;28;19914;-86
2022/06/25 03:36:31;;;;;;;;;;;;;;;;;;4984032;28;19913;-85
2022/06/25 03:38:57;;;;;;;;;;;;;;;;;;4985246;28;19913;-86
2022/06/25 03:41:32;;;;;;;;;;;;;;;;;;4969914;28;20130;-84
2022/06/25 03:43:58;;;;;;;;;;;;;;;;;;4966427;28;20005;-86
2022/06/25 03:46:24;;;;;;;;;;;;;;;;;;4982314;28;20061;-85
2022/06/25 03:48:50;;;;;;;;;;;;;;;;;;4981271;28;19914;-85
2022/06/25 03:51:16;;;;;;;;;;;;;;;;;;4966546;28;19913;-85
2022/06/25 03:53:42;;;;;;;;;;;;;;;;;;4983201;28;20055;-85
2022/06/25 03:56:08;;;;;;;;;;;;;;;;;;4983803;28;20136;-86
2022/06/25 03:58:33;;;;;;;;;;;;;;;;;;4966498;28;19917;-86
2022/06/25 04:00:59;;;;;;;;;;;;;;;;;;4980421;28;19909;-85
2022/06/25 04:03:25;;;;;;;;;;;;;;;;;;4964866;28;20004;-86
2022/06/25 04:05:51;;;;;;;;;;;;;;;;;;4961317;28;19913;-86
2022/06/25 04:08:17;;;;;;;;;;;;;;;;;;4964480;28;19920;-86
2022/06/25 04:10:43;;;;;;;;;;;;;;;;;;4969331;28;19986;-86
2022/06/25 04:13:09;;;;;;;;;;;;;;;;;;4983544;28;19914;-87
2022/06/25 04:15:35;;;;;;;;;;;;;;;;;;4974666;28;20950;-87
2022/06/25 04:18:01;;;;;;;;;;;;;;;;;;4966158;28;19910;-87
2022/06/25 04:20:27;;;;;;;;;;;;;;;;;;4965248;28;19995;-85
2022/06/25 04:22:53;;;;;;;;;;;;;;;;;;4986323;28;19945;-84
2022/06/25 04:25:19;;;;;;;;;;;;;;;;;;4966984;28;19926;-86
2022/06/25 04:30:30;;;;;;;;;;;;;;;;;;4983256;28;20392;-85
2022/06/25 04:32:56;;;;;;;;;;;;;;;;;;4966630;28;19917;-86
2022/06/25 04:35:21;;;;;;;;;;;;;;;;;;4977403;28;19914;-86
2022/06/25 04:37:47;;;;;;;;;;;;;;;;;;4983587;28;19910;-86
2022/06/25 04:40:13;;;;;;;;;;;;;;;;;;4984702;28;20310;-85
2022/06/25 04:42:39;;;;;;;;;;;;;;;;;;4981514;28;20261;-87
2022/06/25 04:45:05;;;;;;;;;;;;;;;;;;4985006;28;19957;-87
2022/06/25 04:47:31;;;;;;;;;;;;;;;;;;4966944;28;20204;-86
2022/06/25 04:49:57;;;;;;;;;;;;;;;;;;4962976;28;19949;-86
2022/06/25 04:52:23;;;;;;;;;;;;;;;;;;4978012;28;19914;-86
2022/06/25 04:54:49;;;;;;;;;;;;;;;;;;4969340;28;20059;-87
2022/06/25 04:57:14;;;;;;;;;;;;;;;;;;4970400;28;19920;-86
2022/06/25 04:59:40;;;;;;;;;;;;;;;;;;4966974;28;19929;-87
2022/06/25 05:02:06;;;;;;;;;;;;;;;;;;4982056;28;19977;-86
2022/06/25 05:04:32;;;;;;;;;;;;;;;;;;4981756;28;20008;-87
2022/06/25 05:06:58;;;;;;;;;;;;;;;;;;4965997;28;20405;-87
2022/06/25 05:09:24;;;;;;;;;;;;;;;;;;4980481;28;19921;-86
2022/06/25 05:11:51;;;;;;;;;;;;;;;;;;4981575;28;19994;-87
2022/06/25 05:14:17;;;;;;;;;;;;;;;;;;4983385;28;20391;-85
2022/06/25 05:16:44;;;;;;;;;;;;;;;;;;4979973;28;20000;-86
2022/06/25 05:19:10;;;;;;;;;;;;;;;;;;4958944;28;20030;-88
2022/06/25 05:21:36;;;;;;;;;;;;;;;;;;4966856;28;20571;-88
2022/06/25 05:24:02;;;;;;;;;;;;;;;;;;4962498;28;19928;-86
2022/06/25 05:26:28;;;;;;;;;;;;;;;;;;4977764;28;19917;-84
2022/06/25 05:28:54;;;;;;;;;;;;;;;;;;4984295;28;20004;-86
2022/06/25 05:31:20;;;;;;;;;;;;;;;;;;4962372;28;20450;-87
2022/06/25 05:33:46;;;;;;;;;;;;;;;;;;4968732;28;20602;-87
2022/06/25 05:36:12;;;;;;;;;;;;;;;;;;4960999;28;20432;-89
2022/06/25 05:38:38;;;;;;;;;;;;;;;;;;4979496;28;19914;-87
2022/06/25 05:41:10;;;;;;;;;;;;;;;;;;4967362;28;19917;-85
2022/06/25 05:43:36;;;;;;;;;;;;;;;;;;4969669;28;19933;-88
2022/06/25 05:46:02;;;;;;;;;;;;;;;;;;4967219;28;19914;-87
2022/06/25 05:48:28;;;;;;;;;;;;;;;;;;4963204;28;20439;-87
2022/06/25 05:50:54;;;;;;;;;;;;;;;;;;4965612;28;19920;-87
2022/06/25 05:53:20;;;;;;;;;;;;;;;;;;4969394;28;20280;-86
2022/06/25 05:55:46;;;;;;;;;;;;;;;;;;4967498;28;20029;-87
2022/06/25 05:58:12;;;;;;;;;;;;;;;;;;4962831;28;19916;-88
2022/06/25 06:00:38;;;;;;;;;;;;;;;;;;4964725;28;20288;-86
2022/06/25 06:03:04;;;;;;;;;;;;;;;;;;4963837;28;19921;-87
2022/06/25 06:05:30;;;;;;;;;;;;;;;;;;4969370;28;19918;-87
2022/06/25 06:07:56;;;;;;;;;;;;;;;;;;4969315;28;20408;-89
2022/06/25 06:10:22;;;;;;;;;;;;;;;;;;4992148;28;19925;-89
2022/06/25 06:12:48;;;;;;;;;;;;;;;;;;4965998;28;19969;-88
2022/06/25 06:15:14;;;;;;;;;;;;;;;;;;4983136;28;20217;-88
2022/06/25 06:17:40;;;;;;;;;;;;;;;;;;4968427;28;19910;-89
2022/06/25 06:20:06;;;;;;;;;;;;;;;;;;4965241;28;20412;-88
2022/06/25 06:22:32;;;;;;;;;;;;;;;;;;4969971;28;19925;-89
2022/06/25 06:24:58;;;;;;;;;;;;;;;;;;4984750;28;19913;-89
2022/06/25 06:27:23;;;;;;;;;;;;;;;;;;4967218;28;19914;-88
2022/06/25 06:29:49;;;;;;;;;;;;;;;;;;4980805;28;19913;-88
2022/06/25 06:32:15;;;;;;;;;;;;;;;;;;4979503;28;19913;-90
2022/06/25 06:34:42;;;;;;;;;;;;;;;;;;4983540;28;19910;-90
2022/06/25 06:37:08;;;;;;;;;;;;;;;;;;4986011;28;20509;-89
2022/06/25 06:39:33;;;;;;;;;;;;;;;;;;4988787;28;19910;-88
2022/06/25 06:41:59;;;;;;;;;;;;;;;;;;4969231;28;19949;-90
2022/06/25 06:44:25;;;;;;;;;;;;;;;;;;4966553;28;19920;-88
2022/06/25 06:46:51;;;;;;;;;;;;;;;;;;4970835;28;19913;-89
2022/06/25 06:49:24;;;;;;;;;;;;;;;;;;4968333;28;19913;-90
2022/06/25 06:51:50;;;;;;;;;;;;;;;;;;4967588;28;19914;-87
2022/06/25 06:54:16;;;;;;;;;;;;;;;;;;4966469;28;20008;-92
2022/06/25 06:56:41;;;;;;;;;;;;;;;;;;4985187;28;19909;-90
2022/06/25 06:59:08;;;;;;;;;;;;;;;;;;4990233;28;19909;-92
2022/06/25 07:01:34;;;;;;;;;;;;;;;;;;4971348;28;19961;-91
2022/06/25 07:04:00;;;;;;;;;;;;;;;;;;4979835;28;19952;-90
2022/06/25 07:06:26;;;;;;;;;;;;;;;;;;4992277;28;19917;-90
2022/06/25 07:08:52;;;;;;;;;;;;;;;;;;4968832;28;19943;-90
2022/06/25 07:11:30;;;;;;;;;;;;;;;;;;4964794;28;19953;-87
2022/06/25 07:13:56;;;;;;;;;;;;;;;;;;4967196;28;19917;-91
2022/06/25 07:16:22;;;;;;;;;;;;;;;;;;4977159;28;20328;-90
2022/06/25 07:18:48;;;;;;;;;;;;;;;;;;4966787;28;20009;-90
2022/06/25 07:21:13;;;;;;;;;;;;;;;;;;4966494;28;20444;-92
2022/06/25 07:23:39;;;;;;;;;;;;;;;;;;4982682;28;19945;-91
2022/06/25 07:26:05;;;;;;;;;;;;;;;;;;4967409;28;19905;-92
2022/06/25 07:28:31;;;;;;;;;;;;;;;;;;4989146;28;19917;-91
2022/06/25 07:30:57;;;;;;;;;;;;;;;;;;4971247;28;19906;-89
2022/06/25 07:33:23;;;;;;;;;;;;;;;;;;4969703;28;20107;-87
2022/06/25 07:35:49;;;;;;;;;;;;;;;;;;4973654;28;19918;-90
2022/06/25 07:38:15;;;;;;;;;;;;;;;;;;4972388;28;19910;-91
2022/06/25 07:40:41;;;;;;;;;;;;;;;;;;4989399;28;19939;-91
2022/06/25 07:43:06;;;;;;;;;;;;;;;;;;4972596;28;19917;-91
2022/06/25 07:45:32;;;;;;;;;;;;;;;;;;4990532;28;19989;-88
2022/06/25 07:47:58;;;;;;;;;;;;;;;;;;4978672;28;19922;-91
2022/06/25 07:53:09;;;;;;;;;;;;;;;;;;4985122;28;19920;-90
2022/06/25 07:55:35;;;;;;;;;;;;;;;;;;4966729;28;20432;-92
2022/06/25 07:58:01;;;;;;;;;;;;;;;;;;4973044;28;19944;-90
2022/06/25 08:00:27;;;;;;;;;;;;;;;;;;4973854;28;19913;-92
2022/06/25 08:02:52;;;;;;;;;;;;;;;;;;4966081;28;19906;-91
2022/06/25 08:05:18;;;;;;;;;;;;;;;;;;4968622;28;19922;-93
2022/06/25 08:07:46;;;;;;;;;;;;;;;;;;4974016;28;19996;-92
2022/06/25 08:10:11;;;;;;;;;;;;;;;;;;4994982;28;19914;-89
2022/06/25 08:12:37;;;;;;;;;;;;;;;;;;4966128;28;19921;-93
2022/06/25 08:15:03;;;;;;;;;;;;;;;;;;4962500;28;19944;-89
2022/06/25 08:17:29;;;;;;;;;;;;;;;;;;4966670;28;19944;-92
2022/06/25 08:19:55;;;;;;;;;;;;;;;;;;4977359;28;19910;-90
2022/06/25 08:22:21;;;;;;;;;;;;;;;;;;4966217;28;19914;-89
2022/06/25 08:24:47;;;;;;;;;;;;;;;;;;4966007;28;19917;-89
2022/06/25 08:27:13;;;;;;;;;;;;;;;;;;4969301;28;19996;-89
2022/06/25 08:29:39;;;;;;;;;;;;;;;;;;4967748;28;19913;-90
2022/06/25 08:32:04;;;;;;;;;;;;;;;;;;4976633;28;19910;-91
2022/06/25 08:34:30;;;;;;;;;;;;;;;;;;4961942;28;19914;-91
2022/06/25 08:36:56;;;;;;;;;;;;;;;;;;4973308;28;19916;-92
2022/06/25 08:39:22;;;;;;;;;;;;;;;;;;4967941;28;19956;-92
2022/06/25 08:41:48;;;;;;;;;;;;;;;;;;4967859;28;19909;-90
2022/06/25 08:44:14;;;;;;;;;;;;;;;;;;4964697;28;19918;-91
2022/06/25 08:46:40;;;;;;;;;;;;;;;;;;4969896;28;19971;-92
2022/06/25 08:49:06;;;;;;;;;;;;;;;;;;4972717;28;19960;-91
2022/06/25 08:51:32;;;;;;;;;;;;;;;;;;4960127;28;20017;-91
2022/06/25 08:53:58;;;;;;;;;;;;;;;;;;4974839;28;20016;-90
2022/06/25 08:56:24;;;;;;;;;;;;;;;;;;4965107;28;19988;-90
2022/06/25 08:58:50;;;;;;;;;;;;;;;;;;4979166;28;19963;-90
2022/06/25 09:01:16;;;;;;;;;;;;;;;;;;4965383;28;19918;-89
2022/06/25 09:03:45;;;;;;;;;;;;;;;;;;4975209;28;19913;-87
2022/06/25 09:06:11;;;;;;;;;;;;;;;;;;4965419;28;20293;-93
2022/06/25 09:08:37;;;;;;;;;;;;;;;;;;4963577;28;19917;-91
2022/06/25 09:11:03;;;;;;;;;;;;;;;;;;4966218;28;19921;-94
2022/06/25 09:13:29;;;;;;;;;;;;;;;;;;4970262;28;20012;-93
2022/06/25 09:15:55;;;;;;;;;;;;;;;;;;4984180;28;19914;-94
2022/06/25 09:18:21;;;;;;;;;;;;;;;;;;4977234;28;19921;-95
2022/06/25 09:20:47;;;;;;;;;;;;;;;;;;4968594;28;20027;-94
2022/06/25 09:23:13;;;;;;;;;;;;;;;;;;4984814;28;20060;-95
2022/06/25 09:25:41;;;;;;;;;;;;;;;;;;4967948;28;19922;-93
2022/06/25 09:28:07;;;;;;;;;;;;;;;;;;4965344;28;20357;-95
2022/06/25 09:30:33;;;;;;;;;;;;;;;;;;4966778;28;19924;-93
2022/06/25 09:32:59;;;;;;;;;;;;;;;;;;4984604;28;19918;-93
2022/06/25 09:35:25;;;;;;;;;;;;;;;;;;4982900;28;19914;-92
2022/06/25 09:37:51;;;;;;;;;;;;;;;;;;4980988;28;20396;-92
2022/06/25 09:40:17;;;;;;;;;;;;;;;;;;4971868;28;19977;-91
2022/06/25 09:42:42;;;;;;;;;;;;;;;;;;4975208;28;19914;-91
2022/06/25 09:45:09;;;;;;;;;;;;;;;;;;4974819;28;20308;-92
2022/06/25 09:47:35;;;;;;;;;;;;;;;;;;4983037;28;20372;-92
2022/06/25 09:50:01;;;;;;;;;;;;;;;;;;4968641;28;20373;-93
2022/06/25 09:52:27;;;;;;;;;;;;;;;;;;4971824;28;19909;-92
2022/06/25 09:54:53;;;;;;;;;;;;;;;;;;4989336;28;19941;-92
2022/06/25 09:57:19;;;;;;;;;;;;;;;;;;4984225;28;19918;-93
2022/06/25 09:59:45;;;;;;;;;;;;;;;;;;4979830;28;19917;-93
2022/06/25 10:02:11;;;;;;;;;;;;;;;;;;4975394;28;20266;-91
2022/06/25 10:04:37;;;;;;;;;;;;;;;;;;4972150;28;20147;-91
2022/06/25 10:07:03;;;;;;;;;;;;;;;;;;4978294;28;19949;-92
2022/06/25 10:09:28;;;;;;;;;;;;;;;;;;4979476;28;19913;-91
2022/06/25 10:11:54;;;;;;;;;;;;;;;;;;4985674;28;19910;-89
2022/06/25 10:14:20;;;;;;;;;;;;;;;;;;4997527;28;19910;-93
2022/06/25 10:16:46;;;;;;;;;;;;;;;;;;5019920;28;19952;-92
2022/06/25 10:19:12;;;;;;;;;;;;;;;;;;4978799;28;19910;-93
2022/06/25 10:21:38;;;;;;;;;;;;;;;;;;4980791;28;19917;-92
2022/06/25 10:24:04;;;;;;;;;;;;;;;;;;4976150;28;19914;-92
2022/06/25 10:26:30;;;;;;;;;;;;;;;;;;4979149;28;19914;-89
2022/06/25 10:28:56;;;;;;;;;;;;;;;;;;4991133;28;19971;-92
2022/06/25 10:31:22;;;;;;;;;;;;;;;;;;4972949;28;19920;-95
2022/06/25 10:33:48;;;;;;;;;;;;;;;;;;4972903;28;19912;-92
2022/06/25 10:36:14;;;;;;;;;;;;;;;;;;4993571;28;20387;-92
2022/06/25 10:38:40;;;;;;;;;;;;;;;;;;4985289;28;19905;-93
2022/06/25 10:43:54;;;;;;;;;;;;;;;;;;4987151;28;20016;-93
2022/06/25 10:46:20;;;;;;;;;;;;;;;;;;4973701;28;19914;-94
2022/06/25 10:48:46;;;;;;;;;;;;;;;;;;4983445;28;20344;-91
2022/06/25 10:51:12;;;;;;;;;;;;;;;;;;4980703;28;19961;-93
2022/06/25 10:53:38;;;;;;;;;;;;;;;;;;4991836;28;19910;-92
2022/06/25 10:56:04;;;;;;;;;;;;;;;;;;4971278;28;19917;-90
2022/06/25 10:58:30;;;;;;;;;;;;;;;;;;4973375;28;19956;-95
2022/06/25 11:00:56;;;;;;;;;;;;;;;;;;4972775;28;19918;-95
2022/06/25 11:03:21;;;;;;;;;;;;;;;;;;4987057;28;19940;-93
2022/06/25 11:05:54;;;;;;;;;;;;;;;;;;4975748;28;19918;-94
2022/06/25 11:08:23;;;;;;;;;;;;;;;;;;4976442;28;20561;-93
2022/06/25 11:10:49;;;;;;;;;;;;;;;;;;4989809;28;20631;-94
2022/06/25 11:13:15;;;;;;;;;;;;;;;;;;4973302;28;19913;-92
2022/06/25 11:15:41;;;;;;;;;;;;;;;;;;4977149;28;19922;-94
2022/06/25 11:18:07;;;;;;;;;;;;;;;;;;4990696;28;19914;-90
2022/06/25 11:20:32;;;;;;;;;;;;;;;;;;4976406;28;19910;-92
2022/06/25 11:22:59;;;;;;;;;;;;;;;;;;4974453;28;20363;-91
2022/06/25 11:30:54;;;;;;;;;;;;;;;;;;4991772;28;19921;-89
2022/06/25 11:33:20;;;;;;;;;;;;;;;;;;4970177;28;19910;-88
2022/06/25 11:35:46;;;;;;;;;;;;;;;;;;4967833;28;19910;-89
2022/06/25 11:38:12;;;;;;;;;;;;;;;;;;4969847;28;19960;-90
2022/06/25 11:40:38;;;;;;;;;;;;;;;;;;4972489;28;19920;-90
2022/06/25 11:43:04;;;;;;;;;;;;;;;;;;4972964;28;19937;-91
2022/06/25 11:45:30;;;;;;;;;;;;;;;;;;4975806;28;19914;-89
2022/06/25 11:47:56;;;;;;;;;;;;;;;;;;4972910;28;19917;-90
2022/06/25 11:50:22;;;;;;;;;;;;;;;;;;4973068;28;19910;-89
2022/06/25 11:52:48;;;;;;;;;;;;;;;;;;4967377;28;19942;-90
2022/06/25 11:55:14;;;;;;;;;;;;;;;;;;4966438;28;20353;-89
2022/06/25 11:57:40;;;;;;;;;;;;;;;;;;4973052;28;19928;-90
2022/06/25 12:00:06;;;;;;;;;;;;;;;;;;4974665;28;20448;-89
2022/06/25 12:02:32;;;;;;;;;;;;;;;;;;4971834;28;19921;-90
2022/06/25 12:04:58;;;;;;;;;;;;;;;;;;4967291;28;20021;-87
2022/06/25 12:07:24;;;;;;;;;;;;;;;;;;4990584;28;19920;-91
2022/06/25 12:09:51;;;;;;;;;;;;;;;;;;4974389;28;20404;-91
2022/06/25 12:12:17;;;;;;;;;;;;;;;;;;4969108;28;21347;-90
2022/06/25 12:14:43;;;;;;;;;;;;;;;;;;4980635;28;19921;-88
2022/06/25 12:17:12;;;;;;;;;;;;;;;;;;4967322;28;20291;-87
2022/06/25 12:19:38;;;;;;;;;;;;;;;;;;4968310;28;19963;-90
2022/06/25 12:22:03;;;;;;;;;;;;;;;;;;4967538;28;19906;-89
2022/06/25 12:24:29;;;;;;;;;;;;;;;;;;4968309;28;19922;-89
2022/06/25 12:26:55;;;;;;;;;;;;;;;;;;4964705;28;19921;-88
2022/06/25 12:29:21;;;;;;;;;;;;;;;;;;4966417;28;19963;-90
2022/06/25 12:31:47;;;;;;;;;;;;;;;;;;4968327;28;19996;-90
2022/06/25 12:34:13;;;;;;;;;;;;;;;;;;4963711;28;19917;-91
2022/06/25 12:36:39;;;;;;;;;;;;;;;;;;4982274;28;20352;-91
2022/06/25 12:39:05;;;;;;;;;;;;;;;;;;4969940;28;19921;-90
2022/06/25 12:41:31;;;;;;;;;;;;;;;;;;4982772;28;19925;-89
2022/06/25 12:43:57;;;;;;;;;;;;;;;;;;4965620;28;19920;-89
2022/06/25 12:46:22;;;;;;;;;;;;;;;;;;4970185;28;19914;-91
2022/06/25 12:48:48;;;;;;;;;;;;;;;;;;4989818;28;19921;-90
2022/06/25 12:51:14;;;;;;;;;;;;;;;;;;4986601;28;20276;-90
2022/06/25 12:53:41;;;;;;;;;;;;;;;;;;4987183;28;20004;-90
2022/06/25 12:56:08;;;;;;;;;;;;;;;;;;4987157;28;19944;-89
2022/06/25 12:58:34;;;;;;;;;;;;;;;;;;4970880;28;20040;-90
2022/06/25 13:01:00;;;;;;;;;;;;;;;;;;4972977;28;20009;-90
2022/06/25 13:03:26;;;;;;;;;;;;;;;;;;4965529;28;19988;-90
2022/06/25 13:05:51;;;;;;;;;;;;;;;;;;4988228;28;19917;-88
2022/06/25 13:08:17;;;;;;;;;;;;;;;;;;4966964;28;19910;-90
2022/06/25 13:10:43;;;;;;;;;;;;;;;;;;4985539;28;19909;-88
2022/06/25 13:13:09;;;;;;;;;;;;;;;;;;4969303;28;20285;-90
2022/06/25 13:15:36;;;;;;;;;;;;;;;;;;4976320;28;19968;-89
2022/06/25 13:18:01;;;;;;;;;;;;;;;;;;4971825;28;20357;-91
2022/06/25 13:20:27;;;;;;;;;;;;;;;;;;4982409;28;19917;-89
2022/06/25 13:22:54;;;;;;;;;;;;;;;;;;4970572;28;19910;-90
2022/06/25 13:25:20;;;;;;;;;;;;;;;;;;4979598;28;19988;-87
2022/06/25 13:27:46;;;;;;;;;;;;;;;;;;4972686;28;19914;-90
2022/06/25 13:30:12;;;;;;;;;;;;;;;;;;4968955;28;19921;-88
2022/06/25 13:32:38;;;;;;;;;;;;;;;;;;5000909;28;19975;-91
2022/06/25 13:35:05;;;;;;;;;;;;;;;;;;4993056;28;20006;-91
2022/06/25 13:37:31;;;;;;;;;;;;;;;;;;4978986;28;19940;-90
2022/06/25 13:39:57;;;;;;;;;;;;;;;;;;4985919;28;19914;-90
2022/06/25 13:42:23;;;;;;;;;;;;;;;;;;4986027;28;19956;-88
2022/06/25 13:44:49;;;;;;;;;;;;;;;;;;4968774;28;19985;-90
2022/06/25 13:47:15;;;;;;;;;;;;;;;;;;4976327;28;19918;-90
2022/06/25 13:49:41;;;;;;;;;;;;;;;;;;4972071;28;19917;-90
2022/06/25 13:52:07;;;;;;;;;;;;;;;;;;4968919;28;20365;-90
2022/06/25 13:54:33;;;;;;;;;;;;;;;;;;4982908;28;20490;-90
2022/06/25 13:56:59;;;;;;;;;;;;;;;;;;4971402;28;19940;-90
2022/06/25 13:59:25;;;;;;;;;;;;;;;;;;4967012;28;20005;-91
2022/06/25 14:01:51;;;;;;;;;;;;;;;;;;4978428;28;19994;-90
2022/06/25 14:04:17;;;;;;;;;;;;;;;;;;4966459;28;19984;-91
2022/06/25 14:06:43;;;;;;;;;;;;;;;;;;4970424;28;19913;-90
2022/06/25 14:09:10;;;;;;;;;;;;;;;;;;4962433;28;20032;-90
2022/06/25 14:11:36;;;;;;;;;;;;;;;;;;4980328;28;20333;-91
2022/06/25 14:14:02;;;;;;;;;;;;;;;;;;4971128;28;20151;-90
2022/06/25 14:16:28;;;;;;;;;;;;;;;;;;4966703;28;19909;-90
2022/06/25 14:18:54;;;;;;;;;;;;;;;;;;4979099;28;19924;-91
2022/06/25 14:21:20;;;;;;;;;;;;;;;;;;4966854;28;19922;-91
2022/06/25 14:23:46;;;;;;;;;;;;;;;;;;4964177;28;19914;-90
2022/06/25 14:26:12;;;;;;;;;;;;;;;;;;4977938;28;19921;-91
2022/06/25 14:28:38;;;;;;;;;;;;;;;;;;4977285;28;20146;-92
2022/06/25 14:31:04;;;;;;;;;;;;;;;;;;4964094;28;19920;-90
2022/06/25 14:33:30;;;;;;;;;;;;;;;;;;4970753;28;19918;-90
2022/06/25 14:44:10;;;;;;;;;;;;;;;;;;4979339;28;19976;-90
2022/06/25 14:46:36;;;;;;;;;;;;;;;;;;4964500;28;19926;-88
2022/06/25 14:49:02;;;;;;;;;;;;;;;;;;4969340;28;19941;-90
2022/06/25 14:51:28;;;;;;;;;;;;;;;;;;4971705;28;19916;-87
2022/06/25 14:53:54;;;;;;;;;;;;;;;;;;4975881;28;19913;-86
2022/06/25 14:56:20;;;;;;;;;;;;;;;;;;4991580;28;19914;-87
2022/06/25 14:58:46;;;;;;;;;;;;;;;;;;4975896;28;20284;-88
2022/06/25 15:01:12;;;;;;;;;;;;;;;;;;4976452;28;20435;-82
2022/06/25 15:03:38;;;;;;;;;;;;;;;;;;4974481;28;19997;-90
2022/06/25 15:06:04;;;;;;;;;;;;;;;;;;4983683;28;19922;-90
2022/06/25 15:08:30;;;;;;;;;;;;;;;;;;4984981;28;19917;-87
2022/06/25 15:10:56;;;;;;;;;;;;;;;;;;4970582;28;19928;-89
2022/06/25 15:13:22;;;;;;;;;;;;;;;;;;4971318;28;20316;-87
2022/06/25 15:15:48;;;;;;;;;;;;;;;;;;4969195;28;19910;-87
2022/06/25 15:18:15;;;;;;;;;;;;;;;;;;4963937;28;19920;-88
2022/06/25 15:20:40;;;;;;;;;;;;;;;;;;4981123;28;19921;-90
2022/06/25 15:23:06;;;;;;;;;;;;;;;;;;4972431;28;19910;-85
2022/06/25 15:25:32;;;;;;;;;;;;;;;;;;4969180;28;19957;-84
2022/06/25 15:27:58;;;;;;;;;;;;;;;;;;4967767;28;20436;-86
2022/06/25 15:30:24;;;;;;;;;;;;;;;;;;4969435;28;19917;-86
2022/06/25 15:32:50;;;;;;;;;;;;;;;;;;4980878;28;19923;-85
2022/06/25 15:35:16;;;;;;;;;;;;;;;;;;4964928;28;20312;-85
2022/06/25 15:37:42;;;;;;;;;;;;;;;;;;4964840;28;19975;-87
2022/06/25 15:40:08;;;;;;;;;;;;;;;;;;4959247;28;20606;-87
2022/06/25 15:42:34;;;;;;;;;;;;;;;;;;4975911;28;20009;-87
2022/06/25 15:45:00;;;;;;;;;;;;;;;;;;4982823;28;19977;-87
2022/06/25 15:47:27;;;;;;;;;;;;;;;;;;4979773;28;19913;-87
2022/06/25 15:49:52;;;;;;;;;;;;;;;;;;4935595;28;19965;-87
2022/06/25 15:52:18;;;;;;;;;;;;;;;;;;4949659;28;19996;-86
2022/06/25 15:54:44;;;;;;;;;;;;;;;;;;4943385;28;19913;-84
2022/06/25 15:57:10;;;;;;;;;;;;;;;;;;4946980;28;19988;-86
2022/06/25 15:59:37;;;;;;;;;;;;;;;;;;4945835;28;20270;-85
2022/06/25 16:02:03;;;;;;;;;;;;;;;;;;4944594;28;19974;-86
2022/06/25 16:04:29;;;;;;;;;;;;;;;;;;4943756;28;20388;-86
2022/06/25 16:06:55;;;;;;;;;;;;;;;;;;4956703;28;19944;-86
2022/06/25 16:09:22;;;;;;;;;;;;;;;;;;4943847;28;20293;-85
2022/06/25 16:11:48;;;;;;;;;;;;;;;;;;4948513;28;19910;-86
2022/06/25 16:14:14;;;;;;;;;;;;;;;;;;4946845;28;19924;-86
2022/06/25 16:16:40;;;;;;;;;;;;;;;;;;4957460;28;20814;-87
2022/06/25 16:19:06;;;;;;;;;;;;;;;;;;4947875;28;19910;-89
2022/06/25 16:21:33;;;;;;;;;;;;;;;;;;4950442;28;19939;-91
2022/06/25 16:23:59;;;;;;;;;;;;;;;;;;4944993;28;20502;-87
2022/06/25 16:26:25;;;;;;;;;;;;;;;;;;4965432;28;20357;-88
2022/06/25 16:28:51;;;;;;;;;;;;;;;;;;4950897;28;19921;-85
2022/06/25 16:31:17;;;;;;;;;;;;;;;;;;4947684;28;20317;-86
2022/06/25 16:33:51;;;;;;;;;;;;;;;;;;4957051;28;20028;-85
2022/06/25 16:36:17;;;;;;;;;;;;;;;;;;4956594;28;20016;-85
2022/06/25 16:38:43;;;;;;;;;;;;;;;;;;4943398;28;20005;-84
2022/06/25 16:41:09;;;;;;;;;;;;;;;;;;4962792;28;19910;-87
2022/06/25 16:46:20;;;;;;;;;;;;;;;;;;4960653;28;19934;-88
2022/06/25 16:48:46;;;;;;;;;;;;;;;;;;4957547;28;19926;-87
2022/06/25 16:51:12;;;;;;;;;;;;;;;;;;4967933;28;20269;-89
2022/06/25 16:53:37;;;;;;;;;;;;;;;;;;4982919;28;20104;-88
2022/06/25 16:56:03;;;;;;;;;;;;;;;;;;4970463;28;19949;-87
2022/06/25 16:58:29;;;;;;;;;;;;;;;;;;4985470;28;20004;-89
2022/06/25 17:00:56;;;;;;;;;;;;;;;;;;4979397;28;19914;-87
2022/06/25 17:03:22;;;;;;;;;;;;;;;;;;4972012;28;20608;-83
2022/06/25 17:05:49;;;;;;;;;;;;;;;;;;4978943;28;19961;-87
2022/06/25 17:08:15;;;;;;;;;;;;;;;;;;4985555;28;19913;-87